sensor_id;sensor_type;location;lat;lon;timestamp;P1;durP1;ratioP1;P2;durP2;ratioP2
26277;SDS011;14000;52.056;8.510;2022-08-14T00:00:00;13.57;;;8.70;;
26277;SDS011;14000;52.056;8.510;2022-08-14T00:02:28;18.37;;;9.10;;
26277;SDS011;14000;52.056;8.510;2022-08-14T00:04:53;13.63;;;8.30;;
26277;SDS011;14000;52.056;8.510;2022-08-14T00:07:19;15.30;;;8.53;;
26277;SDS011;14000;52.056;8.510;2022-08-14T00:09:45;14.10;;;8.83;;
26277;SDS011;14000;52.056;8.510;2022-08-14T00:12:11;14.60;;;8.20;;
26277;SDS011;14000;52.056;8.510;2022-08-14T00:14:38;15.90;;;8.60;;
26277;SDS011;14000;52.056;8.510;2022-08-14T00:17:04;15.57;;;9.37;;
26277;SDS011;14000;52.056;8.510;2022-08-14T00:19:30;15.47;;;9.40;;
26277;SDS011;14000;52.056;8.510;2022-08-14T00:21:56;16.50;;;9.80;;
26277;SDS011;14000;52.056;8.510;2022-08-14T00:24:22;14.03;;;9.13;;
26277;SDS011;14000;52.056;8.510;2022-08-14T00:26:47;16.27;;;10.33;;
26277;SDS011;14000;52.056;8.510;2022-08-14T00:29:13;15.97;;;9.83;;
26277;SDS011;14000;52.056;8.510;2022-08-14T00:31:39;15.33;;;8.97;;
26277;SDS011;14000;52.056;8.510;2022-08-14T00:34:05;14.20;;;9.23;;
26277;SDS011;14000;52.056;8.510;2022-08-14T00:36:31;16.30;;;10.00;;
26277;SDS011;14000;52.056;8.510;2022-08-14T00:38:57;12.87;;;8.83;;
26277;SDS011;14000;52.056;8.510;2022-08-14T00:41:22;14.13;;;9.47;;
26277;SDS011;14000;52.056;8.510;2022-08-14T00:43:53;15.60;;;9.70;;
26277;SDS011;14000;52.056;8.510;2022-08-14T00:46:19;16.33;;;10.80;;
26277;SDS011;14000;52.056;8.510;2022-08-14T00:48:45;13.10;;;8.80;;
26277;SDS011;14000;52.056;8.510;2022-08-14T00:51:12;16.40;;;11.00;;
26277;SDS011;14000;52.056;8.510;2022-08-14T00:53:38;15.53;;;10.23;;
26277;SDS011;14000;52.056;8.510;2022-08-14T00:56:04;16.70;;;10.37;;
26277;SDS011;14000;52.056;8.510;2022-08-14T00:58:31;15.17;;;9.60;;
26277;SDS011;14000;52.056;8.510;2022-08-14T01:01:04;17.50;;;9.87;;
26277;SDS011;14000;52.056;8.510;2022-08-14T01:03:35;16.70;;;10.57;;
26277;SDS011;14000;52.056;8.510;2022-08-14T01:06:03;16.37;;;10.07;;
26277;SDS011;14000;52.056;8.510;2022-08-14T01:08:33;15.77;;;10.03;;
26277;SDS011;14000;52.056;8.510;2022-08-14T01:11:01;14.00;;;9.40;;
26277;SDS011;14000;52.056;8.510;2022-08-14T01:13:28;15.13;;;10.27;;
26277;SDS011;14000;52.056;8.510;2022-08-14T01:15:59;17.40;;;10.93;;
26277;SDS011;14000;52.056;8.510;2022-08-14T01:18:27;18.53;;;11.17;;
26277;SDS011;14000;52.056;8.510;2022-08-14T01:21:13;16.47;;;11.23;;
26277;SDS011;14000;52.056;8.510;2022-08-14T01:23:49;15.13;;;10.23;;
26277;SDS011;14000;52.056;8.510;2022-08-14T01:26:17;19.03;;;9.97;;
26277;SDS011;14000;52.056;8.510;2022-08-14T01:28:46;15.87;;;11.00;;
26277;SDS011;14000;52.056;8.510;2022-08-14T01:31:15;16.77;;;11.07;;
26277;SDS011;14000;52.056;8.510;2022-08-14T01:33:44;18.60;;;11.40;;
26277;SDS011;14000;52.056;8.510;2022-08-14T01:36:12;16.77;;;10.80;;
26277;SDS011;14000;52.056;8.510;2022-08-14T01:38:41;15.60;;;10.37;;
26277;SDS011;14000;52.056;8.510;2022-08-14T01:41:10;17.87;;;12.13;;
26277;SDS011;14000;52.056;8.510;2022-08-14T01:46:16;20.67;;;11.67;;
26277;SDS011;14000;52.056;8.510;2022-08-14T01:48:44;18.30;;;12.03;;
26277;SDS011;14000;52.056;8.510;2022-08-14T01:51:11;19.43;;;12.47;;
26277;SDS011;14000;52.056;8.510;2022-08-14T01:53:39;17.67;;;11.80;;
26277;SDS011;14000;52.056;8.510;2022-08-14T01:56:06;19.67;;;12.47;;
26277;SDS011;14000;52.056;8.510;2022-08-14T01:58:32;18.43;;;12.10;;
26277;SDS011;14000;52.056;8.510;2022-08-14T02:00:58;22.53;;;14.30;;
26277;SDS011;14000;52.056;8.510;2022-08-14T02:03:27;21.60;;;14.13;;
26277;SDS011;14000;52.056;8.510;2022-08-14T02:05:56;22.43;;;13.03;;
26277;SDS011;14000;52.056;8.510;2022-08-14T02:08:26;21.33;;;12.47;;
26277;SDS011;14000;52.056;8.510;2022-08-14T02:10:55;20.50;;;12.90;;
26277;SDS011;14000;52.056;8.510;2022-08-14T02:13:41;19.90;;;13.33;;
26277;SDS011;14000;52.056;8.510;2022-08-14T02:16:11;21.80;;;12.50;;
26277;SDS011;14000;52.056;8.510;2022-08-14T02:18:40;19.30;;;12.80;;
26277;SDS011;14000;52.056;8.510;2022-08-14T02:21:07;19.57;;;11.90;;
26277;SDS011;14000;52.056;8.510;2022-08-14T02:23:36;17.07;;;11.57;;
26277;SDS011;14000;52.056;8.510;2022-08-14T02:26:13;17.20;;;11.20;;
26277;SDS011;14000;52.056;8.510;2022-08-14T02:28:52;18.77;;;12.60;;
26277;SDS011;14000;52.056;8.510;2022-08-14T02:31:20;19.47;;;12.13;;
26277;SDS011;14000;52.056;8.510;2022-08-14T02:33:46;17.63;;;11.57;;
26277;SDS011;14000;52.056;8.510;2022-08-14T02:36:13;17.40;;;11.63;;
26277;SDS011;14000;52.056;8.510;2022-08-14T02:38:41;16.17;;;10.43;;
26277;SDS011;14000;52.056;8.510;2022-08-14T02:41:08;18.20;;;12.20;;
26277;SDS011;14000;52.056;8.510;2022-08-14T02:43:37;17.10;;;11.23;;
26277;SDS011;14000;52.056;8.510;2022-08-14T02:46:05;19.00;;;11.90;;
26277;SDS011;14000;52.056;8.510;2022-08-14T02:48:39;22.87;;;13.23;;
26277;SDS011;14000;52.056;8.510;2022-08-14T02:51:10;21.20;;;14.10;;
26277;SDS011;14000;52.056;8.510;2022-08-14T02:53:38;22.67;;;15.23;;
26277;SDS011;14000;52.056;8.510;2022-08-14T02:56:07;22.47;;;14.13;;
26277;SDS011;14000;52.056;8.510;2022-08-14T02:58:36;22.40;;;15.07;;
26277;SDS011;14000;52.056;8.510;2022-08-14T03:01:05;20.70;;;14.10;;
26277;SDS011;14000;52.056;8.510;2022-08-14T03:03:33;23.40;;;13.83;;
26277;SDS011;14000;52.056;8.510;2022-08-14T03:06:01;22.27;;;14.70;;
26277;SDS011;14000;52.056;8.510;2022-08-14T03:08:29;21.53;;;14.53;;
26277;SDS011;14000;52.056;8.510;2022-08-14T03:11:02;20.53;;;13.67;;
26277;SDS011;14000;52.056;8.510;2022-08-14T03:13:32;19.67;;;13.20;;
26277;SDS011;14000;52.056;8.510;2022-08-14T03:16:00;20.00;;;13.33;;
26277;SDS011;14000;52.056;8.510;2022-08-14T03:18:36;18.47;;;12.57;;
26277;SDS011;14000;52.056;8.510;2022-08-14T03:21:07;19.47;;;12.03;;
26277;SDS011;14000;52.056;8.510;2022-08-14T03:23:39;20.43;;;12.57;;
26277;SDS011;14000;52.056;8.510;2022-08-14T03:26:07;19.50;;;13.20;;
26277;SDS011;14000;52.056;8.510;2022-08-14T03:28:35;20.23;;;13.90;;
26277;SDS011;14000;52.056;8.510;2022-08-14T03:31:05;21.03;;;13.77;;
26277;SDS011;14000;52.056;8.510;2022-08-14T03:33:32;24.40;;;15.03;;
26277;SDS011;14000;52.056;8.510;2022-08-14T03:36:02;27.20;;;16.30;;
26277;SDS011;14000;52.056;8.510;2022-08-14T03:38:32;23.57;;;15.27;;
26277;SDS011;14000;52.056;8.510;2022-08-14T03:40:59;23.47;;;15.97;;
26277;SDS011;14000;52.056;8.510;2022-08-14T03:43:25;24.60;;;15.90;;
26277;SDS011;14000;52.056;8.510;2022-08-14T03:45:53;25.47;;;16.87;;
26277;SDS011;14000;52.056;8.510;2022-08-14T03:48:20;22.17;;;14.57;;
26277;SDS011;14000;52.056;8.510;2022-08-14T03:50:47;24.10;;;15.20;;
26277;SDS011;14000;52.056;8.510;2022-08-14T03:53:16;24.70;;;16.37;;
26277;SDS011;14000;52.056;8.510;2022-08-14T03:55:45;25.20;;;16.03;;
26277;SDS011;14000;52.056;8.510;2022-08-14T03:58:12;19.13;;;12.80;;
26277;SDS011;14000;52.056;8.510;2022-08-14T04:00:40;21.67;;;14.60;;
26277;SDS011;14000;52.056;8.510;2022-08-14T04:03:07;24.33;;;13.63;;
26277;SDS011;14000;52.056;8.510;2022-08-14T04:05:35;22.07;;;14.23;;
26277;SDS011;14000;52.056;8.510;2022-08-14T04:08:09;23.03;;;15.53;;
26277;SDS011;14000;52.056;8.510;2022-08-14T04:10:36;22.63;;;14.97;;
26277;SDS011;14000;52.056;8.510;2022-08-14T04:13:03;22.73;;;15.50;;
26277;SDS011;14000;52.056;8.510;2022-08-14T04:15:33;20.93;;;13.87;;
26277;SDS011;14000;52.056;8.510;2022-08-14T04:18:03;18.63;;;13.07;;
26277;SDS011;14000;52.056;8.510;2022-08-14T04:20:33;18.70;;;13.07;;
26277;SDS011;14000;52.056;8.510;2022-08-14T04:23:00;20.93;;;14.40;;
26277;SDS011;14000;52.056;8.510;2022-08-14T04:25:30;21.17;;;13.90;;
26277;SDS011;14000;52.056;8.510;2022-08-14T04:27:59;17.90;;;12.13;;
26277;SDS011;14000;52.056;8.510;2022-08-14T04:30:26;19.40;;;13.33;;
26277;SDS011;14000;52.056;8.510;2022-08-14T04:32:55;21.20;;;14.50;;
26277;SDS011;14000;52.056;8.510;2022-08-14T04:35:22;20.10;;;13.00;;
26277;SDS011;14000;52.056;8.510;2022-08-14T04:37:49;19.67;;;13.67;;
26277;SDS011;14000;52.056;8.510;2022-08-14T04:40:33;19.70;;;13.20;;
26277;SDS011;14000;52.056;8.510;2022-08-14T04:43:18;18.03;;;12.10;;
26277;SDS011;14000;52.056;8.510;2022-08-14T04:46:08;22.30;;;14.17;;
26277;SDS011;14000;52.056;8.510;2022-08-14T04:48:37;18.17;;;12.43;;
26277;SDS011;14000;52.056;8.510;2022-08-14T04:51:04;21.03;;;13.20;;
26277;SDS011;14000;52.056;8.510;2022-08-14T04:53:35;20.83;;;13.83;;
26277;SDS011;14000;52.056;8.510;2022-08-14T04:56:09;20.40;;;13.97;;
26277;SDS011;14000;52.056;8.510;2022-08-14T04:58:42;22.00;;;15.40;;
26277;SDS011;14000;52.056;8.510;2022-08-14T05:01:09;19.67;;;14.43;;
26277;SDS011;14000;52.056;8.510;2022-08-14T05:03:37;19.20;;;13.90;;
26277;SDS011;14000;52.056;8.510;2022-08-14T05:06:05;19.70;;;13.47;;
26277;SDS011;14000;52.056;8.510;2022-08-14T05:08:33;19.00;;;13.83;;
26277;SDS011;14000;52.056;8.510;2022-08-14T05:11:01;21.03;;;13.67;;
26277;SDS011;14000;52.056;8.510;2022-08-14T05:13:29;20.60;;;13.60;;
26277;SDS011;14000;52.056;8.510;2022-08-14T05:15:57;18.73;;;13.53;;
26277;SDS011;14000;52.056;8.510;2022-08-14T05:18:25;17.13;;;12.60;;
26277;SDS011;14000;52.056;8.510;2022-08-14T05:21:06;19.13;;;12.80;;
26277;SDS011;14000;52.056;8.510;2022-08-14T05:23:34;22.63;;;14.50;;
26277;SDS011;14000;52.056;8.510;2022-08-14T05:26:03;18.93;;;12.50;;
26277;SDS011;14000;52.056;8.510;2022-08-14T05:28:38;18.13;;;12.70;;
26277;SDS011;14000;52.056;8.510;2022-08-14T05:31:08;19.10;;;13.27;;
26277;SDS011;14000;52.056;8.510;2022-08-14T05:33:35;21.53;;;13.97;;
26277;SDS011;14000;52.056;8.510;2022-08-14T05:36:06;18.23;;;12.83;;
26277;SDS011;14000;52.056;8.510;2022-08-14T05:38:40;17.33;;;12.27;;
26277;SDS011;14000;52.056;8.510;2022-08-14T05:41:09;17.93;;;12.17;;
26277;SDS011;14000;52.056;8.510;2022-08-14T05:43:38;17.13;;;11.77;;
26277;SDS011;14000;52.056;8.510;2022-08-14T05:46:05;17.70;;;10.93;;
26277;SDS011;14000;52.056;8.510;2022-08-14T05:48:35;20.50;;;12.90;;
26277;SDS011;14000;52.056;8.510;2022-08-14T05:51:02;17.30;;;11.90;;
26277;SDS011;14000;52.056;8.510;2022-08-14T05:53:28;16.77;;;11.73;;
26277;SDS011;14000;52.056;8.510;2022-08-14T05:55:55;16.23;;;11.73;;
26277;SDS011;14000;52.056;8.510;2022-08-14T05:58:23;14.67;;;10.13;;
26277;SDS011;14000;52.056;8.510;2022-08-14T06:00:50;15.07;;;10.10;;
26277;SDS011;14000;52.056;8.510;2022-08-14T06:03:20;19.07;;;10.60;;
26277;SDS011;14000;52.056;8.510;2022-08-14T06:05:48;15.20;;;9.50;;
26277;SDS011;14000;52.056;8.510;2022-08-14T06:08:26;13.03;;;9.23;;
26277;SDS011;14000;52.056;8.510;2022-08-14T06:11:00;15.63;;;9.73;;
26277;SDS011;14000;52.056;8.510;2022-08-14T06:13:30;13.90;;;9.70;;
26277;SDS011;14000;52.056;8.510;2022-08-14T06:15:57;17.60;;;10.50;;
26277;SDS011;14000;52.056;8.510;2022-08-14T06:18:23;13.90;;;9.27;;
26277;SDS011;14000;52.056;8.510;2022-08-14T06:20:50;17.10;;;9.43;;
26277;SDS011;14000;52.056;8.510;2022-08-14T06:23:16;14.67;;;8.70;;
26277;SDS011;14000;52.056;8.510;2022-08-14T06:25:43;14.90;;;9.10;;
26277;SDS011;14000;52.056;8.510;2022-08-14T06:28:16;13.53;;;8.97;;
26277;SDS011;14000;52.056;8.510;2022-08-14T06:30:47;14.63;;;8.87;;
26277;SDS011;14000;52.056;8.510;2022-08-14T06:36:11;13.50;;;8.40;;
26277;SDS011;14000;52.056;8.510;2022-08-14T06:38:37;13.47;;;9.27;;
26277;SDS011;14000;52.056;8.510;2022-08-14T06:41:04;14.20;;;9.10;;
26277;SDS011;14000;52.056;8.510;2022-08-14T06:43:31;14.33;;;8.37;;
26277;SDS011;14000;52.056;8.510;2022-08-14T06:45:57;14.43;;;9.27;;
26277;SDS011;14000;52.056;8.510;2022-08-14T06:48:23;12.87;;;8.13;;
26277;SDS011;14000;52.056;8.510;2022-08-14T06:50:50;13.13;;;8.23;;
26277;SDS011;14000;52.056;8.510;2022-08-14T06:53:20;13.60;;;8.47;;
26277;SDS011;14000;52.056;8.510;2022-08-14T06:55:47;12.50;;;8.20;;
26277;SDS011;14000;52.056;8.510;2022-08-14T06:58:15;13.43;;;8.60;;
26277;SDS011;14000;52.056;8.510;2022-08-14T07:00:43;12.97;;;8.73;;
26277;SDS011;14000;52.056;8.510;2022-08-14T07:03:32;15.97;;;8.73;;
26277;SDS011;14000;52.056;8.510;2022-08-14T07:06:19;13.83;;;8.63;;
26277;SDS011;14000;52.056;8.510;2022-08-14T07:08:48;12.97;;;8.13;;
26277;SDS011;14000;52.056;8.510;2022-08-14T07:11:15;12.97;;;8.27;;
26277;SDS011;14000;52.056;8.510;2022-08-14T07:13:44;12.27;;;8.07;;
26277;SDS011;14000;52.056;8.510;2022-08-14T07:16:13;13.87;;;8.60;;
26277;SDS011;14000;52.056;8.510;2022-08-14T07:18:40;13.30;;;8.30;;
26277;SDS011;14000;52.056;8.510;2022-08-14T07:21:07;15.00;;;8.77;;
26277;SDS011;14000;52.056;8.510;2022-08-14T07:23:34;12.57;;;7.67;;
26277;SDS011;14000;52.056;8.510;2022-08-14T07:26:01;12.67;;;8.50;;
26277;SDS011;14000;52.056;8.510;2022-08-14T07:28:31;14.83;;;9.23;;
26277;SDS011;14000;52.056;8.510;2022-08-14T07:31:00;13.40;;;8.97;;
26277;SDS011;14000;52.056;8.510;2022-08-14T07:33:30;14.07;;;8.50;;
26277;SDS011;14000;52.056;8.510;2022-08-14T07:36:11;13.60;;;8.13;;
26277;SDS011;14000;52.056;8.510;2022-08-14T07:38:38;13.87;;;8.50;;
26277;SDS011;14000;52.056;8.510;2022-08-14T07:41:08;12.70;;;7.50;;
26277;SDS011;14000;52.056;8.510;2022-08-14T07:43:37;12.50;;;8.47;;
26277;SDS011;14000;52.056;8.510;2022-08-14T07:46:04;15.03;;;8.47;;
26277;SDS011;14000;52.056;8.510;2022-08-14T07:48:31;13.67;;;8.70;;
26277;SDS011;14000;52.056;8.510;2022-08-14T07:51:02;11.93;;;7.47;;
26277;SDS011;14000;52.056;8.510;2022-08-14T07:53:28;13.97;;;8.57;;
26277;SDS011;14000;52.056;8.510;2022-08-14T07:55:54;12.50;;;8.47;;
26277;SDS011;14000;52.056;8.510;2022-08-14T07:58:21;14.63;;;8.57;;
26277;SDS011;14000;52.056;8.510;2022-08-14T08:00:47;16.00;;;8.33;;
26277;SDS011;14000;52.056;8.510;2022-08-14T08:03:15;13.07;;;8.47;;
26277;SDS011;14000;52.056;8.510;2022-08-14T08:05:42;14.90;;;8.10;;
26277;SDS011;14000;52.056;8.510;2022-08-14T08:08:10;14.33;;;8.50;;
26277;SDS011;14000;52.056;8.510;2022-08-14T08:10:39;20.67;;;10.27;;
26277;SDS011;14000;52.056;8.510;2022-08-14T08:13:10;13.37;;;7.80;;
26277;SDS011;14000;52.056;8.510;2022-08-14T08:15:39;12.33;;;8.20;;
26277;SDS011;14000;52.056;8.510;2022-08-14T08:18:11;15.07;;;8.30;;
26277;SDS011;14000;52.056;8.510;2022-08-14T08:20:43;12.67;;;8.37;;
26277;SDS011;14000;52.056;8.510;2022-08-14T08:23:15;14.07;;;8.37;;
26277;SDS011;14000;52.056;8.510;2022-08-14T08:25:44;12.17;;;8.07;;
26277;SDS011;14000;52.056;8.510;2022-08-14T08:28:16;16.00;;;8.60;;
26277;SDS011;14000;52.056;8.510;2022-08-14T08:30:47;12.90;;;8.47;;
26277;SDS011;14000;52.056;8.510;2022-08-14T08:33:17;14.90;;;7.90;;
26277;SDS011;14000;52.056;8.510;2022-08-14T08:35:44;14.77;;;8.60;;
26277;SDS011;14000;52.056;8.510;2022-08-14T08:38:12;13.90;;;8.50;;
26277;SDS011;14000;52.056;8.510;2022-08-14T08:40:42;13.53;;;8.60;;
26277;SDS011;14000;52.056;8.510;2022-08-14T08:43:18;16.13;;;8.53;;
26277;SDS011;14000;52.056;8.510;2022-08-14T08:45:57;12.97;;;7.93;;
26277;SDS011;14000;52.056;8.510;2022-08-14T08:48:42;15.27;;;8.63;;
26277;SDS011;14000;52.056;8.510;2022-08-14T08:51:31;12.67;;;7.73;;
26277;SDS011;14000;52.056;8.510;2022-08-14T08:56:47;16.17;;;8.13;;
26277;SDS011;14000;52.056;8.510;2022-08-14T08:59:23;14.67;;;8.30;;
26277;SDS011;14000;52.056;8.510;2022-08-14T09:01:55;15.17;;;8.40;;
26277;SDS011;14000;52.056;8.510;2022-08-14T09:04:26;14.50;;;8.60;;
26277;SDS011;14000;52.056;8.510;2022-08-14T09:06:55;21.47;;;11.93;;
26277;SDS011;14000;52.056;8.510;2022-08-14T09:09:22;38.23;;;24.43;;
26277;SDS011;14000;52.056;8.510;2022-08-14T09:11:50;21.33;;;14.10;;
26277;SDS011;14000;52.056;8.510;2022-08-14T09:14:23;50.73;;;33.90;;
26277;SDS011;14000;52.056;8.510;2022-08-14T09:16:51;17.60;;;9.50;;
26277;SDS011;14000;52.056;8.510;2022-08-14T09:19:18;22.60;;;13.27;;
26277;SDS011;14000;52.056;8.510;2022-08-14T09:21:45;16.67;;;9.47;;
26277;SDS011;14000;52.056;8.510;2022-08-14T09:24:12;16.00;;;9.87;;
26277;SDS011;14000;52.056;8.510;2022-08-14T09:26:39;18.97;;;11.73;;
26277;SDS011;14000;52.056;8.510;2022-08-14T09:29:07;14.03;;;8.30;;
26277;SDS011;14000;52.056;8.510;2022-08-14T09:31:35;15.50;;;9.27;;
26277;SDS011;14000;52.056;8.510;2022-08-14T09:39:46;11.50;;;7.47;;
26277;SDS011;14000;52.056;8.510;2022-08-14T09:45:32;12.70;;;7.93;;
26277;SDS011;14000;52.056;8.510;2022-08-14T09:48:23;13.67;;;8.10;;
26277;SDS011;14000;52.056;8.510;2022-08-14T09:50:52;13.73;;;8.60;;
26277;SDS011;14000;52.056;8.510;2022-08-14T09:53:39;13.63;;;8.30;;
26277;SDS011;14000;52.056;8.510;2022-08-14T09:56:08;14.03;;;8.30;;
26277;SDS011;14000;52.056;8.510;2022-08-14T10:01:07;14.47;;;7.77;;
26277;SDS011;14000;52.056;8.510;2022-08-14T10:03:36;14.17;;;8.27;;
26277;SDS011;14000;52.056;8.510;2022-08-14T10:06:04;14.17;;;8.63;;
26277;SDS011;14000;52.056;8.510;2022-08-14T10:08:44;12.00;;;7.47;;
26277;SDS011;14000;52.056;8.510;2022-08-14T10:11:12;14.50;;;8.17;;
26277;SDS011;14000;52.056;8.510;2022-08-14T10:13:42;13.27;;;7.53;;
26277;SDS011;14000;52.056;8.510;2022-08-14T10:16:08;13.13;;;8.00;;
26277;SDS011;14000;52.056;8.510;2022-08-14T10:18:35;13.43;;;7.93;;
26277;SDS011;14000;52.056;8.510;2022-08-14T10:21:01;12.73;;;7.83;;
26277;SDS011;14000;52.056;8.510;2022-08-14T10:23:39;14.83;;;8.23;;
26277;SDS011;14000;52.056;8.510;2022-08-14T10:26:15;13.23;;;8.13;;
26277;SDS011;14000;52.056;8.510;2022-08-14T10:28:43;12.63;;;7.03;;
26277;SDS011;14000;52.056;8.510;2022-08-14T10:31:24;13.30;;;7.80;;
26277;SDS011;14000;52.056;8.510;2022-08-14T10:34:03;11.90;;;6.73;;
26277;SDS011;14000;52.056;8.510;2022-08-14T10:36:35;12.43;;;7.20;;
26277;SDS011;14000;52.056;8.510;2022-08-14T10:39:05;14.20;;;7.17;;
26277;SDS011;14000;52.056;8.510;2022-08-14T10:41:34;13.20;;;6.83;;
26277;SDS011;14000;52.056;8.510;2022-08-14T10:46:45;12.50;;;7.00;;
26277;SDS011;14000;52.056;8.510;2022-08-14T10:49:22;15.67;;;7.77;;
26277;SDS011;14000;52.056;8.510;2022-08-14T10:52:01;13.57;;;6.90;;
26277;SDS011;14000;52.056;8.510;2022-08-14T10:54:34;13.67;;;7.50;;
26277;SDS011;14000;52.056;8.510;2022-08-14T10:57:14;12.50;;;6.83;;
26277;SDS011;14000;52.056;8.510;2022-08-14T10:59:53;13.87;;;7.37;;
26277;SDS011;14000;52.056;8.510;2022-08-14T11:02:26;11.67;;;7.00;;
26277;SDS011;14000;52.056;8.510;2022-08-14T11:07:29;12.83;;;6.13;;
26277;SDS011;14000;52.056;8.510;2022-08-14T11:09:56;12.17;;;6.50;;
26277;SDS011;14000;52.056;8.510;2022-08-14T11:12:24;15.53;;;7.43;;
26277;SDS011;14000;52.056;8.510;2022-08-14T11:14:55;11.77;;;6.33;;
26277;SDS011;14000;52.056;8.510;2022-08-14T11:17:25;12.43;;;6.10;;
26277;SDS011;14000;52.056;8.510;2022-08-14T11:19:54;12.60;;;5.87;;
26277;SDS011;14000;52.056;8.510;2022-08-14T11:22:24;11.10;;;5.95;;
26277;SDS011;14000;52.056;8.510;2022-08-14T11:24:52;11.02;;;5.38;;
26277;SDS011;14000;52.056;8.510;2022-08-14T11:27:20;9.93;;;4.88;;
26277;SDS011;14000;52.056;8.510;2022-08-14T11:29:49;11.15;;;5.55;;
26277;SDS011;14000;52.056;8.510;2022-08-14T11:32:17;10.73;;;4.45;;
26277;SDS011;14000;52.056;8.510;2022-08-14T11:34:45;9.85;;;5.13;;
26277;SDS011;14000;52.056;8.510;2022-08-14T11:37:11;9.30;;;4.70;;
26277;SDS011;14000;52.056;8.510;2022-08-14T11:39:38;9.35;;;4.63;;
26277;SDS011;14000;52.056;8.510;2022-08-14T11:42:04;11.27;;;4.85;;
26277;SDS011;14000;52.056;8.510;2022-08-14T11:44:31;9.65;;;5.35;;
26277;SDS011;14000;52.056;8.510;2022-08-14T11:46:57;9.63;;;4.97;;
26277;SDS011;14000;52.056;8.510;2022-08-14T11:49:26;9.50;;;5.18;;
26277;SDS011;14000;52.056;8.510;2022-08-14T11:51:55;11.02;;;5.50;;
26277;SDS011;14000;52.056;8.510;2022-08-14T11:54:21;9.13;;;5.13;;
26277;SDS011;14000;52.056;8.510;2022-08-14T11:56:47;10.50;;;5.72;;
26277;SDS011;14000;52.056;8.510;2022-08-14T11:59:17;10.85;;;5.40;;
26277;SDS011;14000;52.056;8.510;2022-08-14T12:01:46;13.50;;;5.68;;
26277;SDS011;14000;52.056;8.510;2022-08-14T12:04:17;11.25;;;5.57;;
26277;SDS011;14000;52.056;8.510;2022-08-14T12:06:48;12.85;;;5.25;;
26277;SDS011;14000;52.056;8.510;2022-08-14T12:09:33;10.75;;;5.28;;
26277;SDS011;14000;52.056;8.510;2022-08-14T12:12:01;10.27;;;5.20;;
26277;SDS011;14000;52.056;8.510;2022-08-14T12:14:58;10.00;;;5.15;;
26277;SDS011;14000;52.056;8.510;2022-08-14T12:17:26;11.27;;;5.60;;
26277;SDS011;14000;52.056;8.510;2022-08-14T12:19:53;11.13;;;5.28;;
26277;SDS011;14000;52.056;8.510;2022-08-14T12:22:30;9.82;;;5.07;;
26277;SDS011;14000;52.056;8.510;2022-08-14T12:24:58;11.27;;;5.55;;
26277;SDS011;14000;52.056;8.510;2022-08-14T12:30:35;10.85;;;5.68;;
26277;SDS011;14000;52.056;8.510;2022-08-14T12:33:04;10.38;;;5.50;;
26277;SDS011;14000;52.056;8.510;2022-08-14T12:35:51;9.32;;;4.90;;
26277;SDS011;14000;52.056;8.510;2022-08-14T12:38:29;10.48;;;5.40;;
26277;SDS011;14000;52.056;8.510;2022-08-14T12:41:03;11.57;;;5.60;;
26277;SDS011;14000;52.056;8.510;2022-08-14T12:43:42;12.50;;;6.57;;
26277;SDS011;14000;52.056;8.510;2022-08-14T12:46:21;9.73;;;5.70;;
26277;SDS011;14000;52.056;8.510;2022-08-14T12:48:47;12.70;;;6.43;;
26277;SDS011;14000;52.056;8.510;2022-08-14T12:51:21;10.35;;;5.70;;
26277;SDS011;14000;52.056;8.510;2022-08-14T12:53:54;13.70;;;5.63;;
26277;SDS011;14000;52.056;8.510;2022-08-14T12:56:22;10.82;;;5.75;;
26277;SDS011;14000;52.056;8.510;2022-08-14T12:58:53;11.48;;;5.38;;
26277;SDS011;14000;52.056;8.510;2022-08-14T13:01:27;11.27;;;5.68;;
26277;SDS011;14000;52.056;8.510;2022-08-14T13:06:36;10.75;;;5.65;;
26277;SDS011;14000;52.056;8.510;2022-08-14T13:09:12;9.52;;;5.20;;
26277;SDS011;14000;52.056;8.510;2022-08-14T13:11:43;11.43;;;5.25;;
26277;SDS011;14000;52.056;8.510;2022-08-14T13:14:16;9.68;;;5.38;;
26277;SDS011;14000;52.056;8.510;2022-08-14T13:16:52;11.07;;;5.95;;
26277;SDS011;14000;52.056;8.510;2022-08-14T13:19:19;11.38;;;5.70;;
26277;SDS011;14000;52.056;8.510;2022-08-14T13:21:46;9.30;;;5.10;;
26277;SDS011;14000;52.056;8.510;2022-08-14T13:24:15;10.43;;;5.68;;
26277;SDS011;14000;52.056;8.510;2022-08-14T13:26:44;9.65;;;5.38;;
26277;SDS011;14000;52.056;8.510;2022-08-14T13:29:12;10.05;;;5.30;;
26277;SDS011;14000;52.056;8.510;2022-08-14T13:31:42;10.65;;;5.50;;
26277;SDS011;14000;52.056;8.510;2022-08-14T13:34:11;10.73;;;5.40;;
26277;SDS011;14000;52.056;8.510;2022-08-14T13:36:37;9.57;;;5.28;;
26277;SDS011;14000;52.056;8.510;2022-08-14T13:39:04;10.02;;;5.63;;
26277;SDS011;14000;52.056;8.510;2022-08-14T13:41:30;14.27;;;5.55;;
26277;SDS011;14000;52.056;8.510;2022-08-14T13:43:57;11.13;;;5.38;;
26277;SDS011;14000;52.056;8.510;2022-08-14T13:46:23;12.80;;;5.57;;
26277;SDS011;14000;52.056;8.510;2022-08-14T13:48:50;9.38;;;5.15;;
26277;SDS011;14000;52.056;8.510;2022-08-14T13:51:16;11.40;;;5.30;;
26277;SDS011;14000;52.056;8.510;2022-08-14T13:53:46;10.95;;;5.40;;
26277;SDS011;14000;52.056;8.510;2022-08-14T13:56:14;10.30;;;5.28;;
26277;SDS011;14000;52.056;8.510;2022-08-14T13:58:43;9.50;;;5.25;;
26277;SDS011;14000;52.056;8.510;2022-08-14T14:01:10;10.90;;;5.28;;
26277;SDS011;14000;52.056;8.510;2022-08-14T14:03:39;10.48;;;4.95;;
26277;SDS011;14000;52.056;8.510;2022-08-14T14:06:10;10.35;;;5.22;;
26277;SDS011;14000;52.056;8.510;2022-08-14T14:08:40;9.82;;;5.22;;
26277;SDS011;14000;52.056;8.510;2022-08-14T14:11:11;9.38;;;4.72;;
26277;SDS011;14000;52.056;8.510;2022-08-14T14:13:37;9.23;;;5.35;;
26277;SDS011;14000;52.056;8.510;2022-08-14T14:16:03;8.95;;;4.85;;
26277;SDS011;14000;52.056;8.510;2022-08-14T14:18:33;10.55;;;5.25;;
26277;SDS011;14000;52.056;8.510;2022-08-14T14:21:00;9.20;;;5.15;;
26277;SDS011;14000;52.056;8.510;2022-08-14T14:23:27;10.25;;;5.15;;
26277;SDS011;14000;52.056;8.510;2022-08-14T14:25:54;10.80;;;5.50;;
26277;SDS011;14000;52.056;8.510;2022-08-14T14:28:20;10.75;;;4.95;;
26277;SDS011;14000;52.056;8.510;2022-08-14T14:30:52;13.90;;;5.90;;
26277;SDS011;14000;52.056;8.510;2022-08-14T14:33:19;10.30;;;5.30;;
26277;SDS011;14000;52.056;8.510;2022-08-14T14:35:45;11.57;;;5.10;;
26277;SDS011;14000;52.056;8.510;2022-08-14T14:38:12;9.80;;;5.17;;
26277;SDS011;14000;52.056;8.510;2022-08-14T14:40:43;9.00;;;4.90;;
26277;SDS011;14000;52.056;8.510;2022-08-14T14:43:10;10.33;;;5.00;;
26277;SDS011;14000;52.056;8.510;2022-08-14T14:45:37;9.10;;;5.37;;
26277;SDS011;14000;52.056;8.510;2022-08-14T14:48:04;10.10;;;5.10;;
26277;SDS011;14000;52.056;8.510;2022-08-14T14:50:32;10.10;;;4.80;;
26277;SDS011;14000;52.056;8.510;2022-08-14T14:52:58;9.80;;;5.00;;
26277;SDS011;14000;52.056;8.510;2022-08-14T14:55:24;10.43;;;4.97;;
26277;SDS011;14000;52.056;8.510;2022-08-14T14:57:51;8.47;;;4.53;;
26277;SDS011;14000;52.056;8.510;2022-08-14T15:00:17;10.07;;;5.00;;
26277;SDS011;14000;52.056;8.510;2022-08-14T15:02:48;9.80;;;5.07;;
26277;SDS011;14000;52.056;8.510;2022-08-14T15:05:16;9.00;;;5.00;;
26277;SDS011;14000;52.056;8.510;2022-08-14T15:07:43;11.30;;;5.32;;
26277;SDS011;14000;52.056;8.510;2022-08-14T15:10:13;11.18;;;4.88;;
26277;SDS011;14000;52.056;8.510;2022-08-14T15:12:40;10.93;;;5.43;;
26277;SDS011;14000;52.056;8.510;2022-08-14T15:15:07;9.43;;;5.00;;